createdAt,value
2023-02-15T00:02:56.627Z,29.73
2023-02-15T00:05:59.771Z,29.65
2023-02-15T00:09:04.036Z,32.83
2023-02-15T00:12:07.088Z,31.73
2023-02-15T00:15:10.004Z,29.63
2023-02-15T00:18:12.797Z,26.37
2023-02-15T00:21:15.600Z,26.58
2023-02-15T00:24:20.531Z,31.67
2023-02-15T00:27:23.355Z,35.20
2023-02-15T00:30:26.274Z,37.03
2023-02-15T00:33:29.267Z,38.57
2023-02-15T00:36:32.854Z,33.90
2023-02-15T00:39:35.746Z,34.08
2023-02-15T00:42:38.560Z,31.05
2023-02-15T00:45:41.308Z,27.13
2023-02-15T00:48:44.469Z,26.87
2023-02-15T00:51:47.614Z,26.90
2023-02-15T00:54:50.366Z,26.45
2023-02-15T00:57:53.287Z,22.65
2023-02-15T01:00:56.306Z,31.83
2023-02-15T01:04:00.193Z,29.33
2023-02-15T01:07:05.845Z,27.23
2023-02-15T01:10:09.952Z,30.10
2023-02-15T01:13:12.850Z,28.42
2023-02-15T01:16:15.714Z,27.07
2023-02-15T01:19:19.258Z,27.37
2023-02-15T01:22:22.032Z,28.15
2023-02-15T01:25:25.385Z,30.73
2023-02-15T01:28:28.301Z,26.67
2023-02-15T01:31:31.723Z,26.33
2023-02-15T01:34:34.620Z,25.93
2023-02-15T01:37:37.621Z,27.17
2023-02-15T01:40:41.142Z,30.45
2023-02-15T01:43:49.454Z,29.27
2023-02-15T01:46:55.542Z,27.00
2023-02-15T01:50:38.767Z,29.37
2023-02-15T01:56:59.032Z,26.17
2023-02-15T02:00:04.792Z,26.38
2023-02-15T02:03:16.063Z,26.33
2023-02-15T02:06:18.974Z,24.07
2023-02-15T02:09:21.870Z,30.98
2023-02-15T02:12:26.230Z,25.48
2023-02-15T02:15:57.589Z,26.70
2023-02-15T02:19:25.528Z,27.50
2023-02-15T02:22:34.516Z,25.97
2023-02-15T02:26:04.864Z,22.92
2023-02-15T02:29:33.883Z,20.17
2023-02-15T02:32:48.744Z,20.55
2023-02-15T02:36:17.685Z,22.80
2023-02-15T02:39:55.673Z,22.97
2023-02-15T02:43:10.598Z,21.33
2023-02-15T02:46:37.232Z,22.30
2023-02-15T02:49:42.648Z,21.75
2023-02-15T02:52:54.139Z,22.47
2023-02-15T02:56:01.019Z,22.47
2023-02-15T02:59:08.511Z,21.33
2023-02-15T03:02:23.468Z,22.80
2023-02-15T03:05:30.568Z,20.63
2023-02-15T03:08:38.917Z,19.97
2023-02-15T03:11:46.232Z,18.93
2023-02-15T03:14:55.622Z,18.95
2023-02-15T03:18:03.943Z,17.08
2023-02-15T03:21:10.173Z,18.08
2023-02-15T03:24:26.725Z,16.77
2023-02-15T03:27:37.127Z,16.83
2023-02-15T03:30:45.515Z,17.50
2023-02-15T03:34:01.227Z,17.17
2023-02-15T03:37:15.238Z,16.45
2023-02-15T03:40:45.964Z,17.73
2023-02-15T03:44:11.536Z,16.23
2023-02-15T03:47:21.643Z,16.60
2023-02-15T03:50:49.053Z,17.05
2023-02-15T03:53:53.223Z,18.17
2023-02-15T03:57:15.952Z,16.47
2023-02-15T04:00:41.517Z,17.60
2023-02-15T04:03:50.348Z,16.40
2023-02-15T04:06:53.141Z,16.73
2023-02-15T04:10:14.256Z,16.92
2023-02-15T04:13:17.061Z,15.63
2023-02-15T04:16:19.999Z,16.33
2023-02-15T04:19:41.455Z,24.15
2023-02-15T04:23:02.610Z,26.10
2023-02-15T04:26:05.928Z,23.48
2023-02-15T04:29:08.812Z,22.93
2023-02-15T04:32:11.734Z,23.07
2023-02-15T04:35:15.366Z,22.75
2023-02-15T04:38:18.158Z,19.65
2023-02-15T04:41:20.986Z,17.33
2023-02-15T04:44:23.778Z,17.00
2023-02-15T04:47:26.594Z,16.13
2023-02-15T04:50:29.499Z,16.63
2023-02-15T04:53:32.220Z,18.17
2023-02-15T04:56:36.058Z,18.65
2023-02-15T04:59:38.987Z,17.90
2023-02-15T05:02:41.955Z,18.53
2023-02-15T05:05:44.982Z,19.02
2023-02-15T05:08:48.087Z,22.55
2023-02-15T05:11:51.084Z,20.20
2023-02-15T05:14:53.922Z,22.37
2023-02-15T05:17:56.750Z,20.47
2023-02-15T05:20:59.556Z,22.05
2023-02-15T05:24:22.344Z,23.13
2023-02-15T05:27:43.801Z,28.35
2023-02-15T05:30:51.423Z,29.17
2023-02-15T05:33:54.266Z,27.90
2023-02-15T05:36:57.068Z,35.90
2023-02-15T05:39:59.969Z,52.97
2023-02-15T05:43:02.746Z,47.20
2023-02-15T05:46:06.177Z,46.10
2023-02-15T05:49:09.281Z,43.93
2023-02-15T05:52:13.333Z,43.03
2023-02-15T05:55:16.194Z,43.28
2023-02-15T05:58:19.006Z,45.72
2023-02-15T06:01:24.348Z,42.53
2023-02-15T06:04:27.500Z,35.03
2023-02-15T06:07:30.310Z,28.00
2023-02-15T06:10:33.129Z,26.48
2023-02-15T06:13:38.961Z,33.60
2023-02-15T06:16:42.215Z,32.57
2023-02-15T06:19:47.132Z,31.33
2023-02-15T06:22:49.972Z,30.00
2023-02-15T06:25:52.879Z,30.77
2023-02-15T06:28:55.686Z,33.50
2023-02-15T06:31:58.600Z,33.67
2023-02-15T06:35:01.481Z,35.63
2023-02-15T06:38:05.273Z,36.95
2023-02-15T06:41:08.255Z,46.15
2023-02-15T06:44:11.199Z,58.67
2023-02-15T06:47:14.186Z,59.07
2023-02-15T06:50:17.226Z,66.33
2023-02-15T06:53:19.974Z,62.03
2023-02-15T06:56:23.756Z,68.40
2023-02-15T06:59:27.010Z,68.15
2023-02-15T07:02:30.063Z,66.07
2023-02-15T07:05:35.817Z,57.50
2023-02-15T07:08:41.048Z,55.72
2023-02-15T07:12:02.590Z,54.50
2023-02-15T07:15:07.950Z,53.90
2023-02-15T07:18:11.896Z,59.30
2023-02-15T07:21:14.737Z,67.50
2023-02-15T07:24:18.280Z,76.75
2023-02-15T07:27:21.388Z,79.97
2023-02-15T07:30:24.549Z,76.88
2023-02-15T07:33:29.025Z,74.70
2023-02-15T07:36:32.019Z,77.23
2023-02-15T07:39:35.737Z,80.15
2023-02-15T07:42:40.136Z,72.55
2023-02-15T07:45:45.116Z,72.63
2023-02-15T07:48:48.672Z,72.75
2023-02-15T07:51:58.936Z,64.27
2023-02-15T07:55:07.519Z,57.30
2023-02-15T07:58:10.414Z,49.50
2023-02-15T08:01:14.067Z,47.17
2023-02-15T08:04:19.019Z,44.70
2023-02-15T08:07:21.863Z,38.07
2023-02-15T08:10:45.178Z,37.78
2023-02-15T08:13:57.376Z,53.60
2023-02-15T08:17:03.926Z,58.35
2023-02-15T08:20:12.750Z,48.97
2023-02-15T08:23:15.774Z,44.53
2023-02-15T08:26:20.491Z,39.75
2023-02-15T08:29:26.397Z,33.35
2023-02-15T08:32:29.405Z,32.55
2023-02-15T08:35:32.750Z,29.27
2023-02-15T08:38:35.793Z,27.50
2023-02-15T08:41:44.687Z,28.10
2023-02-15T08:44:49.442Z,28.58
2023-02-15T08:47:54.444Z,31.10
2023-02-15T08:50:57.352Z,30.75
2023-02-15T08:54:04.205Z,29.20
2023-02-15T08:57:08.104Z,29.63
2023-02-15T09:00:11.482Z,28.50
2023-02-15T09:03:17.959Z,28.92
2023-02-15T09:06:23.400Z,27.77
2023-02-15T09:09:28.140Z,28.73
2023-02-15T09:12:33.959Z,27.67
2023-02-15T09:15:39.039Z,27.25
2023-02-15T09:18:42.274Z,27.30
2023-02-15T09:21:45.176Z,25.88
2023-02-15T09:24:48.189Z,23.07
2023-02-15T09:27:51.148Z,26.05
2023-02-15T09:30:58.235Z,23.23
2023-02-15T09:34:04.219Z,24.38
2023-02-15T09:37:08.415Z,22.40
2023-02-15T09:40:15.915Z,22.33
2023-02-15T09:43:45.031Z,23.13
2023-02-15T09:47:19.045Z,24.90
2023-02-15T09:50:38.883Z,24.88
2023-02-15T09:54:02.023Z,24.70
2023-02-15T09:57:15.270Z,16.17
2023-02-15T10:00:24.457Z,16.98
2023-02-15T10:04:02.124Z,16.08
2023-02-15T10:07:20.949Z,15.70
2023-02-15T10:10:41.467Z,14.85
2023-02-15T10:14:00.825Z,14.33
2023-02-15T10:17:26.100Z,15.05
2023-02-15T10:20:33.227Z,13.95
2023-02-15T10:23:46.602Z,15.88
2023-02-15T10:26:50.606Z,15.27
2023-02-15T10:30:10.974Z,15.20
2023-02-15T10:33:38.567Z,14.95
2023-02-15T10:36:53.660Z,15.48
2023-02-15T10:40:40.747Z,15.45
2023-02-15T10:44:28.416Z,15.82
2023-02-15T10:47:37.205Z,15.70
2023-02-15T10:51:05.938Z,16.02
2023-02-15T10:54:12.017Z,14.93
2023-02-15T10:57:48.231Z,15.80
2023-02-15T11:01:01.830Z,16.73
2023-02-15T11:04:18.263Z,15.90
2023-02-15T11:07:30.317Z,15.40
2023-02-15T11:10:45.253Z,15.00
2023-02-15T11:13:52.167Z,14.23
2023-02-15T11:17:01.007Z,14.82
2023-02-15T11:20:38.227Z,15.90
2023-02-15T11:23:47.813Z,15.93
2023-02-15T11:27:19.954Z,15.88
2023-02-15T11:30:33.949Z,14.68
2023-02-15T11:33:43.341Z,16.85
2023-02-15T11:36:49.011Z,14.23
2023-02-15T11:39:55.851Z,15.82
2023-02-15T11:43:14.276Z,15.48
2023-02-15T11:46:19.878Z,14.88
2023-02-15T11:49:41.466Z,15.00
2023-02-15T11:52:47.084Z,14.37
2023-02-15T11:55:55.124Z,14.38
2023-02-15T11:59:36.214Z,15.55
2023-02-15T12:02:48.337Z,15.40
2023-02-15T12:06:00.662Z,15.15
2023-02-15T12:09:29.822Z,15.17
2023-02-15T12:12:36.077Z,14.45
2023-02-15T12:15:42.283Z,15.38
2023-02-15T12:18:50.573Z,14.80
2023-02-15T12:21:56.607Z,14.98
2023-02-15T12:25:02.323Z,14.57
2023-02-15T12:28:24.329Z,14.63
2023-02-15T12:31:49.276Z,14.27
2023-02-15T12:34:56.150Z,14.93
2023-02-15T12:38:06.632Z,14.35
2023-02-15T12:41:31.247Z,15.27
2023-02-15T12:44:35.937Z,15.45
2023-02-15T12:47:38.753Z,15.10
2023-02-15T12:50:55.131Z,15.38
2023-02-15T12:54:02.080Z,14.98
2023-02-15T12:57:26.635Z,16.20
2023-02-15T13:00:34.232Z,15.20
2023-02-15T13:03:40.467Z,16.80
2023-02-15T13:06:50.601Z,15.30
2023-02-15T13:09:53.653Z,16.13
2023-02-15T13:12:58.906Z,19.27
2023-02-15T13:16:15.068Z,15.43
2023-02-15T13:19:22.924Z,14.68
2023-02-15T13:22:43.125Z,14.88
2023-02-15T13:25:52.757Z,14.32
2023-02-15T13:29:09.746Z,14.20
2023-02-15T13:32:37.437Z,14.88
2023-02-15T13:35:52.614Z,13.88
2023-02-15T13:39:11.948Z,14.90
2023-02-15T13:42:14.709Z,15.07
2023-02-15T13:45:27.052Z,14.37
2023-02-15T13:48:47.137Z,18.23
2023-02-15T13:52:19.475Z,15.90
2023-02-15T13:55:31.874Z,15.05
2023-02-15T13:59:01.695Z,14.73
2023-02-15T14:02:22.867Z,14.70
2023-02-15T14:05:55.757Z,15.32
2023-02-15T14:09:01.804Z,14.50
2023-02-15T14:12:14.856Z,15.68
2023-02-15T14:15:41.930Z,14.63
2023-02-15T14:18:51.266Z,15.03
2023-02-15T14:22:25.055Z,15.10
2023-02-15T14:25:56.330Z,14.43
2023-02-15T14:29:18.054Z,15.70
2023-02-15T14:32:31.022Z,15.35
2023-02-15T14:35:35.229Z,15.60
2023-02-15T14:38:56.876Z,14.30
2023-02-15T14:42:15.654Z,17.80
2023-02-15T14:45:35.119Z,15.25
2023-02-15T14:48:46.364Z,16.38
2023-02-15T14:51:50.509Z,16.13
2023-02-15T14:54:58.208Z,14.45
2023-02-15T14:58:01.149Z,15.05
2023-02-15T15:01:10.660Z,16.00
2023-02-15T15:04:26.743Z,16.27
2023-02-15T15:08:22.718Z,22.00
2023-02-15T15:11:43.017Z,19.38
2023-02-15T15:14:46.960Z,12.80
2023-02-15T15:18:07.416Z,17.00
2023-02-15T15:21:10.445Z,15.87
2023-02-15T15:24:38.150Z,16.20
2023-02-15T15:27:53.815Z,19.00
2023-02-15T15:30:57.842Z,24.55
2023-02-15T15:34:28.823Z,24.65
2023-02-15T15:37:53.558Z,24.25
2023-02-15T15:41:42.856Z,25.70
2023-02-15T15:45:14.993Z,24.67
2023-02-15T15:48:31.681Z,29.02
2023-02-15T15:51:42.903Z,27.35
2023-02-15T15:54:49.722Z,29.60
2023-02-15T15:57:59.641Z,39.37
2023-02-15T16:01:10.417Z,41.20
2023-02-15T16:04:15.550Z,39.60
2023-02-15T16:07:18.319Z,40.20
2023-02-15T16:10:27.734Z,40.10
2023-02-15T16:13:30.574Z,39.43
2023-02-15T16:16:33.610Z,51.10
2023-02-15T16:19:40.716Z,45.28
2023-02-15T16:22:43.717Z,45.05
2023-02-15T16:26:24.414Z,61.60
2023-02-15T16:29:32.929Z,53.50
2023-02-15T16:32:37.400Z,50.03
2023-02-15T16:35:53.679Z,53.65
2023-02-15T16:38:56.768Z,61.00
2023-02-15T16:42:03.037Z,65.53
2023-02-15T16:45:16.809Z,62.63
2023-02-15T16:48:25.183Z,56.38
2023-02-15T16:51:32.213Z,60.58
2023-02-15T16:54:36.569Z,61.90
2023-02-15T16:57:44.143Z,64.23
2023-02-15T17:00:47.796Z,78.80
2023-02-15T17:04:11.107Z,85.47
2023-02-15T17:07:21.541Z,82.97
2023-02-15T17:10:34.050Z,76.40
2023-02-15T17:13:37.564Z,73.37
2023-02-15T17:16:50.787Z,76.37
2023-02-15T17:19:56.561Z,73.45
2023-02-15T17:22:59.875Z,79.28
2023-02-15T17:26:17.217Z,74.22
2023-02-15T17:29:42.655Z,74.70
2023-02-15T17:33:02.017Z,76.47
2023-02-15T17:36:25.924Z,74.82
2023-02-15T17:39:29.090Z,74.72
2023-02-15T17:42:31.885Z,72.38
2023-02-15T17:45:48.164Z,72.77
2023-02-15T17:48:57.087Z,67.77
2023-02-15T17:52:00.164Z,60.50
2023-02-15T17:55:32.378Z,54.80
2023-02-15T17:58:35.814Z,53.90
2023-02-15T18:02:04.202Z,65.07
2023-02-15T18:05:34.831Z,59.70
2023-02-15T18:08:57.090Z,56.13
2023-02-15T18:12:00.305Z,55.10
2023-02-15T18:15:04.601Z,53.40
2023-02-15T18:18:12.424Z,50.20
2023-02-15T18:21:15.399Z,54.10
2023-02-15T18:24:27.785Z,52.47
2023-02-15T18:27:30.937Z,41.60
2023-02-15T18:30:34.288Z,48.13
2023-02-15T18:33:44.815Z,46.77
2023-02-15T18:36:47.754Z,46.30
2023-02-15T18:39:54.596Z,45.17
2023-02-15T18:42:57.895Z,44.88
2023-02-15T18:46:00.994Z,50.03
2023-02-15T18:49:04.466Z,64.27
2023-02-15T18:52:18.354Z,69.63
2023-02-15T18:55:21.139Z,80.55
2023-02-15T18:58:25.186Z,131.95
2023-02-15T19:01:28.384Z,147.30
2023-02-15T19:04:32.485Z,129.30
2023-02-15T19:07:37.161Z,130.00
2023-02-15T19:10:40.438Z,123.72
2023-02-15T19:13:43.803Z,113.55
2023-02-15T19:16:48.448Z,118.95
2023-02-15T19:19:52.617Z,114.73
2023-02-15T19:22:57.974Z,110.87
2023-02-15T19:26:01.933Z,107.15
2023-02-15T19:29:05.324Z,94.30
2023-02-15T19:32:11.994Z,93.95
2023-02-15T19:35:19.943Z,95.53
2023-02-15T19:38:27.416Z,93.77
2023-02-15T19:41:33.394Z,101.55
2023-02-15T19:44:36.603Z,86.72
2023-02-15T19:47:41.506Z,90.63
2023-02-15T19:50:48.874Z,75.30
2023-02-15T19:53:52.421Z,70.03
2023-02-15T19:56:55.910Z,59.80
2023-02-15T20:00:01.647Z,61.92
2023-02-15T20:03:09.933Z,57.33
2023-02-15T20:06:15.717Z,54.97
2023-02-15T20:09:40.996Z,59.00
2023-02-15T20:12:44.562Z,61.20
2023-02-15T20:15:50.279Z,60.67
2023-02-15T20:18:53.412Z,64.43
2023-02-15T20:21:57.585Z,70.93
2023-02-15T20:25:02.377Z,75.10
2023-02-15T20:28:06.134Z,71.03
2023-02-15T20:31:17.576Z,61.00
2023-02-15T20:34:22.548Z,51.83
2023-02-15T20:37:29.631Z,47.70
2023-02-15T20:40:35.040Z,42.17
2023-02-15T20:43:39.918Z,39.38
2023-02-15T20:46:52.300Z,36.83
2023-02-15T20:49:55.958Z,33.97
2023-02-15T20:53:00.945Z,32.87
2023-02-15T20:56:04.816Z,34.10
2023-02-15T20:59:21.759Z,36.78
2023-02-15T21:02:25.332Z,40.25
2023-02-15T21:05:30.977Z,41.03
2023-02-15T21:08:34.489Z,39.80
2023-02-15T21:11:38.103Z,39.33
2023-02-15T21:14:41.414Z,36.22
2023-02-15T21:17:44.534Z,33.63
2023-02-15T21:20:49.956Z,31.20
2023-02-15T21:23:53.887Z,29.20
2023-02-15T21:27:00.541Z,29.20
2023-02-15T21:30:06.565Z,32.13
2023-02-15T21:33:09.877Z,32.95
2023-02-15T21:36:18.978Z,30.83
2023-02-15T21:39:25.241Z,30.63
2023-02-15T21:42:47.439Z,28.63
2023-02-15T21:46:08.856Z,29.45
2023-02-15T21:49:12.077Z,27.13
2023-02-15T21:52:18.462Z,27.13
2023-02-15T21:55:21.644Z,29.10
2023-02-15T21:58:26.838Z,30.63
2023-02-15T22:01:30.266Z,30.33
2023-02-15T22:04:33.361Z,30.00
2023-02-15T22:07:36.102Z,31.75
2023-02-15T22:10:39.389Z,30.67
2023-02-15T22:13:42.943Z,31.07
2023-02-15T22:16:45.742Z,30.77
2023-02-15T22:19:50.162Z,32.03
2023-02-15T22:22:53.579Z,31.60
2023-02-15T22:25:59.158Z,28.83
2023-02-15T22:29:02.085Z,26.53
2023-02-15T22:32:06.173Z,25.73
2023-02-15T22:35:19.018Z,27.63
2023-02-15T22:38:21.892Z,28.90
2023-02-15T22:41:29.001Z,30.37
2023-02-15T22:44:34.933Z,28.07
2023-02-15T22:47:38.875Z,27.52
2023-02-15T22:50:41.868Z,26.52
2023-02-15T22:53:44.855Z,28.23
2023-02-15T22:56:55.226Z,27.17
2023-02-15T22:59:59.502Z,27.30
2023-02-15T23:03:02.432Z,26.48
2023-02-15T23:06:06.641Z,28.92
2023-02-15T23:09:09.594Z,31.17
2023-02-15T23:12:27.661Z,31.67
2023-02-15T23:15:30.579Z,29.90
2023-02-15T23:18:39.095Z,29.13
2023-02-15T23:21:42.453Z,28.05
2023-02-15T23:24:52.971Z,26.92
2023-02-15T23:27:58.597Z,27.23
2023-02-15T23:31:02.625Z,30.00
2023-02-15T23:34:15.134Z,31.88
2023-02-15T23:37:18.573Z,31.65
2023-02-15T23:40:40.838Z,31.77
2023-02-15T23:43:47.140Z,29.00
2023-02-15T23:46:50.884Z,27.53
2023-02-15T23:49:53.662Z,28.23
2023-02-15T23:52:57.519Z,27.95
2023-02-15T23:56:01.330Z,26.30
2023-02-15T23:59:05.401Z,26.17
